sensor_id;sensor_type;location;lat;lon;timestamp;temperature;humidity
42141;DHT22;27809;51.864;5.646;2023-04-03T00:00:56;3.40;93.20
42141;DHT22;27809;51.864;5.646;2023-04-03T00:03:22;3.40;92.90
42141;DHT22;27809;51.864;5.646;2023-04-03T00:05:48;3.40;93.00
42141;DHT22;27809;51.864;5.646;2023-04-03T00:08:14;3.50;93.80
42141;DHT22;27809;51.864;5.646;2023-04-03T00:10:40;3.50;93.40
42141;DHT22;27809;51.864;5.646;2023-04-03T00:13:06;3.40;93.00
42141;DHT22;27809;51.864;5.646;2023-04-03T00:15:33;3.40;93.60
42141;DHT22;27809;51.864;5.646;2023-04-03T00:17:58;3.40;93.30
42141;DHT22;27809;51.864;5.646;2023-04-03T00:20:24;3.30;93.60
42141;DHT22;27809;51.864;5.646;2023-04-03T00:22:49;3.30;94.10
42141;DHT22;27809;51.864;5.646;2023-04-03T00:25:15;3.30;94.60
42141;DHT22;27809;51.864;5.646;2023-04-03T00:27:41;3.30;93.80
42141;DHT22;27809;51.864;5.646;2023-04-03T00:30:08;3.30;94.40
42141;DHT22;27809;51.864;5.646;2023-04-03T00:32:35;3.30;94.20
42141;DHT22;27809;51.864;5.646;2023-04-03T00:35:01;3.30;93.30
42141;DHT22;27809;51.864;5.646;2023-04-03T00:37:26;3.20;92.60
42141;DHT22;27809;51.864;5.646;2023-04-03T00:39:52;3.20;93.20
42141;DHT22;27809;51.864;5.646;2023-04-03T00:42:17;3.30;93.50
42141;DHT22;27809;51.864;5.646;2023-04-03T00:47:11;3.30;93.40
42141;DHT22;27809;51.864;5.646;2023-04-03T00:49:39;3.20;91.80
42141;DHT22;27809;51.864;5.646;2023-04-03T00:52:11;3.10;93.20
42141;DHT22;27809;51.864;5.646;2023-04-03T00:54:39;3.20;93.40
42141;DHT22;27809;51.864;5.646;2023-04-03T00:57:06;3.10;93.40
42141;DHT22;27809;51.864;5.646;2023-04-03T00:59:35;3.00;93.70
42141;DHT22;27809;51.864;5.646;2023-04-03T01:02:03;3.10;95.50
42141;DHT22;27809;51.864;5.646;2023-04-03T01:04:30;2.90;93.40
42141;DHT22;27809;51.864;5.646;2023-04-03T01:06:59;2.80;94.20
42141;DHT22;27809;51.864;5.646;2023-04-03T01:09:25;2.60;95.90
42141;DHT22;27809;51.864;5.646;2023-04-03T01:11:51;2.50;97.10
42141;DHT22;27809;51.864;5.646;2023-04-03T01:14:17;2.40;98.10
42141;DHT22;27809;51.864;5.646;2023-04-03T01:16:42;2.40;99.90
42141;DHT22;27809;51.864;5.646;2023-04-03T01:19:13;2.50;99.90
42141;DHT22;27809;51.864;5.646;2023-04-03T01:21:54;2.40;99.90
42141;DHT22;27809;51.864;5.646;2023-04-03T01:24:35;2.40;99.90
42141;DHT22;27809;51.864;5.646;2023-04-03T01:27:04;2.40;99.90
42141;DHT22;27809;51.864;5.646;2023-04-03T01:29:31;2.40;99.90
42141;DHT22;27809;51.864;5.646;2023-04-03T01:31:58;2.50;99.90
42141;DHT22;27809;51.864;5.646;2023-04-03T01:34:26;2.60;99.90
42141;DHT22;27809;51.864;5.646;2023-04-03T01:36:52;2.70;99.90
42141;DHT22;27809;51.864;5.646;2023-04-03T01:39:17;2.80;99.50
42141;DHT22;27809;51.864;5.646;2023-04-03T01:41:43;2.80;99.40
42141;DHT22;27809;51.864;5.646;2023-04-03T01:44:09;2.90;99.10
42141;DHT22;27809;51.864;5.646;2023-04-03T01:46:35;2.80;98.40
42141;DHT22;27809;51.864;5.646;2023-04-03T01:49:01;2.80;98.00
42141;DHT22;27809;51.864;5.646;2023-04-03T01:51:26;2.90;98.40
42141;DHT22;27809;51.864;5.646;2023-04-03T01:53:52;2.80;98.10
42141;DHT22;27809;51.864;5.646;2023-04-03T01:56:17;2.90;99.40
42141;DHT22;27809;51.864;5.646;2023-04-03T01:58:43;2.90;99.10
42141;DHT22;27809;51.864;5.646;2023-04-03T02:01:09;2.90;99.30
42141;DHT22;27809;51.864;5.646;2023-04-03T02:03:34;2.90;99.80
42141;DHT22;27809;51.864;5.646;2023-04-03T02:06:01;2.90;99.90
42141;DHT22;27809;51.864;5.646;2023-04-03T02:08:26;2.80;99.90
42141;DHT22;27809;51.864;5.646;2023-04-03T02:10:52;2.70;99.90
42141;DHT22;27809;51.864;5.646;2023-04-03T02:13:18;2.80;99.90
42141;DHT22;27809;51.864;5.646;2023-04-03T02:15:43;2.80;99.90
42141;DHT22;27809;51.864;5.646;2023-04-03T02:18:10;2.80;99.90
42141;DHT22;27809;51.864;5.646;2023-04-03T02:20:36;2.80;99.90
42141;DHT22;27809;51.864;5.646;2023-04-03T02:23:02;2.80;99.90
42141;DHT22;27809;51.864;5.646;2023-04-03T02:25:28;2.80;99.90
42141;DHT22;27809;51.864;5.646;2023-04-03T02:27:53;3.00;99.90
42141;DHT22;27809;51.864;5.646;2023-04-03T02:30:19;2.90;99.90
42141;DHT22;27809;51.864;5.646;2023-04-03T02:32:44;2.90;99.90
42141;DHT22;27809;51.864;5.646;2023-04-03T02:35:11;2.90;99.90
42141;DHT22;27809;51.864;5.646;2023-04-03T02:37:37;2.80;99.90
42141;DHT22;27809;51.864;5.646;2023-04-03T02:40:03;2.80;99.90
42141;DHT22;27809;51.864;5.646;2023-04-03T02:42:29;2.90;99.90
42141;DHT22;27809;51.864;5.646;2023-04-03T02:44:55;2.90;99.90
42141;DHT22;27809;51.864;5.646;2023-04-03T02:47:21;2.90;99.90
42141;DHT22;27809;51.864;5.646;2023-04-03T02:49:46;2.90;99.90
42141;DHT22;27809;51.864;5.646;2023-04-03T02:52:13;2.80;99.90
42141;DHT22;27809;51.864;5.646;2023-04-03T02:54:39;2.90;99.90
42141;DHT22;27809;51.864;5.646;2023-04-03T02:57:04;2.80;99.90
42141;DHT22;27809;51.864;5.646;2023-04-03T02:59:30;2.90;99.90
42141;DHT22;27809;51.864;5.646;2023-04-03T03:01:56;2.90;99.90
42141;DHT22;27809;51.864;5.646;2023-04-03T03:04:22;2.80;99.90
42141;DHT22;27809;51.864;5.646;2023-04-03T03:06:47;2.70;99.90
42141;DHT22;27809;51.864;5.646;2023-04-03T03:09:13;2.80;99.90
42141;DHT22;27809;51.864;5.646;2023-04-03T03:11:39;2.70;99.90
42141;DHT22;27809;51.864;5.646;2023-04-03T03:14:04;2.70;99.90
42141;DHT22;27809;51.864;5.646;2023-04-03T03:16:30;2.70;99.90
42141;DHT22;27809;51.864;5.646;2023-04-03T03:18:56;2.60;99.90
42141;DHT22;27809;51.864;5.646;2023-04-03T03:21:21;2.60;99.90
42141;DHT22;27809;51.864;5.646;2023-04-03T03:23:47;2.70;99.90
42141;DHT22;27809;51.864;5.646;2023-04-03T03:26:12;2.70;99.90
42141;DHT22;27809;51.864;5.646;2023-04-03T03:28:39;2.70;99.90
42141;DHT22;27809;51.864;5.646;2023-04-03T03:31:06;2.50;99.90
42141;DHT22;27809;51.864;5.646;2023-04-03T03:33:32;2.50;99.90
42141;DHT22;27809;51.864;5.646;2023-04-03T03:35:59;2.50;99.90
42141;DHT22;27809;51.864;5.646;2023-04-03T03:38:25;2.40;99.90
42141;DHT22;27809;51.864;5.646;2023-04-03T03:40:51;2.40;99.90
42141;DHT22;27809;51.864;5.646;2023-04-03T03:43:17;2.40;99.90
42141;DHT22;27809;51.864;5.646;2023-04-03T03:45:43;2.30;99.90
42141;DHT22;27809;51.864;5.646;2023-04-03T03:48:09;2.40;99.90
42141;DHT22;27809;51.864;5.646;2023-04-03T03:50:34;2.30;99.90
42141;DHT22;27809;51.864;5.646;2023-04-03T03:53:00;2.20;99.90
42141;DHT22;27809;51.864;5.646;2023-04-03T03:55:26;2.20;99.90
42141;DHT22;27809;51.864;5.646;2023-04-03T03:57:51;2.20;99.90
42141;DHT22;27809;51.864;5.646;2023-04-03T04:00:17;2.10;99.90
42141;DHT22;27809;51.864;5.646;2023-04-03T04:02:43;2.10;99.90
42141;DHT22;27809;51.864;5.646;2023-04-03T04:05:09;2.10;99.90
42141;DHT22;27809;51.864;5.646;2023-04-03T04:07:35;2.10;99.90
42141;DHT22;27809;51.864;5.646;2023-04-03T04:10:00;2.10;99.90
42141;DHT22;27809;51.864;5.646;2023-04-03T04:12:26;2.10;99.90
42141;DHT22;27809;51.864;5.646;2023-04-03T04:14:51;2.20;99.90
42141;DHT22;27809;51.864;5.646;2023-04-03T04:17:17;2.20;99.90
42141;DHT22;27809;51.864;5.646;2023-04-03T04:19:43;2.20;99.90
42141;DHT22;27809;51.864;5.646;2023-04-03T04:22:08;2.10;99.90
42141;DHT22;27809;51.864;5.646;2023-04-03T04:24:34;2.10;99.90
42141;DHT22;27809;51.864;5.646;2023-04-03T04:26:59;2.20;99.90
42141;DHT22;27809;51.864;5.646;2023-04-03T04:29:25;2.10;99.90
42141;DHT22;27809;51.864;5.646;2023-04-03T04:31:51;2.10;99.90
42141;DHT22;27809;51.864;5.646;2023-04-03T04:34:16;2.10;99.90
42141;DHT22;27809;51.864;5.646;2023-04-03T04:36:42;2.10;99.90
42141;DHT22;27809;51.864;5.646;2023-04-03T04:39:07;2.00;99.90
42141;DHT22;27809;51.864;5.646;2023-04-03T04:41:33;1.90;99.90
42141;DHT22;27809;51.864;5.646;2023-04-03T04:44:00;1.90;99.90
42141;DHT22;27809;51.864;5.646;2023-04-03T04:46:26;1.60;99.90
42141;DHT22;27809;51.864;5.646;2023-04-03T04:48:51;1.70;99.90
42141;DHT22;27809;51.864;5.646;2023-04-03T04:51:17;1.60;99.90
42141;DHT22;27809;51.864;5.646;2023-04-03T04:53:43;1.60;99.90
42141;DHT22;27809;51.864;5.646;2023-04-03T04:56:09;1.70;99.90
42141;DHT22;27809;51.864;5.646;2023-04-03T04:58:35;1.50;99.90
42141;DHT22;27809;51.864;5.646;2023-04-03T05:01:02;1.50;99.90
42141;DHT22;27809;51.864;5.646;2023-04-03T05:03:27;1.60;99.90
42141;DHT22;27809;51.864;5.646;2023-04-03T05:05:53;1.60;99.90
42141;DHT22;27809;51.864;5.646;2023-04-03T05:08:18;1.50;99.90
42141;DHT22;27809;51.864;5.646;2023-04-03T05:10:47;1.60;99.90
42141;DHT22;27809;51.864;5.646;2023-04-03T05:13:13;1.60;99.90
42141;DHT22;27809;51.864;5.646;2023-04-03T05:15:38;1.60;99.90
42141;DHT22;27809;51.864;5.646;2023-04-03T05:18:04;1.50;99.90
42141;DHT22;27809;51.864;5.646;2023-04-03T05:20:31;1.60;99.90
42141;DHT22;27809;51.864;5.646;2023-04-03T05:22:56;1.70;99.90
42141;DHT22;27809;51.864;5.646;2023-04-03T05:25:22;1.80;99.90
42141;DHT22;27809;51.864;5.646;2023-04-03T05:27:47;1.90;99.90
42141;DHT22;27809;51.864;5.646;2023-04-03T05:30:13;1.90;99.90
42141;DHT22;27809;51.864;5.646;2023-04-03T05:32:39;2.00;99.90
42141;DHT22;27809;51.864;5.646;2023-04-03T05:35:06;2.00;99.90
42141;DHT22;27809;51.864;5.646;2023-04-03T05:37:33;2.10;99.90
42141;DHT22;27809;51.864;5.646;2023-04-03T05:39:58;2.00;99.90
42141;DHT22;27809;51.864;5.646;2023-04-03T05:42:24;1.90;99.90
42141;DHT22;27809;51.864;5.646;2023-04-03T05:44:49;1.90;99.90
42141;DHT22;27809;51.864;5.646;2023-04-03T05:47:16;2.00;99.90
42141;DHT22;27809;51.864;5.646;2023-04-03T05:49:41;2.00;99.90
42141;DHT22;27809;51.864;5.646;2023-04-03T05:52:19;1.90;99.90
42141;DHT22;27809;51.864;5.646;2023-04-03T05:54:45;2.10;99.90
42141;DHT22;27809;51.864;5.646;2023-04-03T05:57:14;2.20;99.90
42141;DHT22;27809;51.864;5.646;2023-04-03T05:59:39;2.20;99.90
42141;DHT22;27809;51.864;5.646;2023-04-03T06:02:05;2.20;99.90
42141;DHT22;27809;51.864;5.646;2023-04-03T06:04:31;2.30;99.90
42141;DHT22;27809;51.864;5.646;2023-04-03T06:06:57;2.40;99.90
42141;DHT22;27809;51.864;5.646;2023-04-03T06:09:26;2.50;99.90
42141;DHT22;27809;51.864;5.646;2023-04-03T06:11:52;2.50;99.90
42141;DHT22;27809;51.864;5.646;2023-04-03T06:14:18;2.50;99.90
42141;DHT22;27809;51.864;5.646;2023-04-03T06:16:44;2.50;99.90
42141;DHT22;27809;51.864;5.646;2023-04-03T06:19:11;2.50;99.90
42141;DHT22;27809;51.864;5.646;2023-04-03T06:21:37;2.50;99.90
42141;DHT22;27809;51.864;5.646;2023-04-03T06:24:03;2.70;99.90
42141;DHT22;27809;51.864;5.646;2023-04-03T06:26:29;2.70;99.50
42141;DHT22;27809;51.864;5.646;2023-04-03T06:28:55;2.70;98.50
42141;DHT22;27809;51.864;5.646;2023-04-03T06:31:21;2.80;99.90
42141;DHT22;27809;51.864;5.646;2023-04-03T06:33:47;2.80;97.80
42141;DHT22;27809;51.864;5.646;2023-04-03T06:36:13;2.90;96.90
42141;DHT22;27809;51.864;5.646;2023-04-03T06:38:39;3.00;97.40
42141;DHT22;27809;51.864;5.646;2023-04-03T06:41:04;3.10;95.30
42141;DHT22;27809;51.864;5.646;2023-04-03T06:43:30;3.10;95.40
42141;DHT22;27809;51.864;5.646;2023-04-03T06:45:58;3.10;93.40
42141;DHT22;27809;51.864;5.646;2023-04-03T06:48:24;3.20;92.50
42141;DHT22;27809;51.864;5.646;2023-04-03T06:50:49;3.10;88.10
42141;DHT22;27809;51.864;5.646;2023-04-03T06:53:15;3.20;90.50
42141;DHT22;27809;51.864;5.646;2023-04-03T06:55:41;3.20;87.40
42141;DHT22;27809;51.864;5.646;2023-04-03T06:58:07;3.20;85.20
42141;DHT22;27809;51.864;5.646;2023-04-03T07:00:33;3.30;85.00
42141;DHT22;27809;51.864;5.646;2023-04-03T07:02:59;3.40;86.80
42141;DHT22;27809;51.864;5.646;2023-04-03T07:05:25;3.50;88.50
42141;DHT22;27809;51.864;5.646;2023-04-03T07:07:51;3.60;90.10
42141;DHT22;27809;51.864;5.646;2023-04-03T07:10:17;3.60;85.80
42141;DHT22;27809;51.864;5.646;2023-04-03T07:12:43;3.70;86.30
42141;DHT22;27809;51.864;5.646;2023-04-03T07:15:09;3.80;86.50
42141;DHT22;27809;51.864;5.646;2023-04-03T07:17:35;3.90;78.30
42141;DHT22;27809;51.864;5.646;2023-04-03T07:20:02;4.00;85.20
42141;DHT22;27809;51.864;5.646;2023-04-03T07:22:29;4.00;80.90
42141;DHT22;27809;51.864;5.646;2023-04-03T07:24:54;3.80;69.40
42141;DHT22;27809;51.864;5.646;2023-04-03T07:27:20;4.00;75.70
42141;DHT22;27809;51.864;5.646;2023-04-03T07:29:45;4.20;77.10
42141;DHT22;27809;51.864;5.646;2023-04-03T07:32:12;4.10;73.20
42141;DHT22;27809;51.864;5.646;2023-04-03T07:34:38;4.20;69.20
42141;DHT22;27809;51.864;5.646;2023-04-03T07:37:04;4.30;69.50
42141;DHT22;27809;51.864;5.646;2023-04-03T07:39:30;4.50;66.80
42141;DHT22;27809;51.864;5.646;2023-04-03T07:41:55;4.60;70.20
42141;DHT22;27809;51.864;5.646;2023-04-03T07:44:21;4.80;68.30
42141;DHT22;27809;51.864;5.646;2023-04-03T07:46:47;4.90;63.50
42141;DHT22;27809;51.864;5.646;2023-04-03T07:49:14;4.90;60.20
42141;DHT22;27809;51.864;5.646;2023-04-03T07:51:39;5.00;51.50
42141;DHT22;27809;51.864;5.646;2023-04-03T07:54:05;4.90;53.80
42141;DHT22;27809;51.864;5.646;2023-04-03T07:56:30;5.30;57.90
42141;DHT22;27809;51.864;5.646;2023-04-03T07:58:57;5.50;47.50
42141;DHT22;27809;51.864;5.646;2023-04-03T08:01:22;5.70;46.30
42141;DHT22;27809;51.864;5.646;2023-04-03T08:03:48;5.90;47.80
42141;DHT22;27809;51.864;5.646;2023-04-03T08:06:13;6.00;38.90
42141;DHT22;27809;51.864;5.646;2023-04-03T08:08:40;6.00;36.20
42141;DHT22;27809;51.864;5.646;2023-04-03T08:11:06;6.40;36.20
42141;DHT22;27809;51.864;5.646;2023-04-03T08:13:33;6.40;37.30
42141;DHT22;27809;51.864;5.646;2023-04-03T08:16:11;6.70;26.90
42141;DHT22;27809;51.864;5.646;2023-04-03T08:18:37;6.70;25.70
42141;DHT22;27809;51.864;5.646;2023-04-03T08:21:11;7.10;22.50
42141;DHT22;27809;51.864;5.646;2023-04-03T08:23:37;7.30;15.50
42141;DHT22;27809;51.864;5.646;2023-04-03T08:26:15;7.50;17.00
42141;DHT22;27809;51.864;5.646;2023-04-03T08:28:41;7.50;9.60
42141;DHT22;27809;51.864;5.646;2023-04-03T08:31:10;7.60;6.30
42141;DHT22;27809;51.864;5.646;2023-04-03T08:33:37;7.60;2.40
42141;DHT22;27809;51.864;5.646;2023-04-03T08:36:04;8.10;6.60
42141;DHT22;27809;51.864;5.646;2023-04-03T08:38:30;8.10;1.00
42141;DHT22;27809;51.864;5.646;2023-04-03T08:41:20;8.50;1.00
42141;DHT22;27809;51.864;5.646;2023-04-03T08:49:33;9.50;1.00
42141;DHT22;27809;51.864;5.646;2023-04-03T08:52:04;9.80;1.00
42141;DHT22;27809;51.864;5.646;2023-04-03T08:54:56;9.90;1.00
42141;DHT22;27809;51.864;5.646;2023-04-03T08:57:39;9.80;1.00
42141;DHT22;27809;51.864;5.646;2023-04-03T09:00:25;9.90;1.00
42141;DHT22;27809;51.864;5.646;2023-04-03T09:02:54;9.40;1.00
42141;DHT22;27809;51.864;5.646;2023-04-03T09:11:13;10.50;1.00
42141;DHT22;27809;51.864;5.646;2023-04-03T09:14:00;11.00;1.00
42141;DHT22;27809;51.864;5.646;2023-04-03T09:16:56;10.90;1.00
42141;DHT22;27809;51.864;5.646;2023-04-03T09:19:35;11.20;1.00
42141;DHT22;27809;51.864;5.646;2023-04-03T09:22:16;11.50;1.00
42141;DHT22;27809;51.864;5.646;2023-04-03T09:24:44;10.90;1.00
42141;DHT22;27809;51.864;5.646;2023-04-03T09:27:11;10.50;1.00
42141;DHT22;27809;51.864;5.646;2023-04-03T09:29:40;10.80;1.00
42141;DHT22;27809;51.864;5.646;2023-04-03T09:32:25;11.20;1.00
42141;DHT22;27809;51.864;5.646;2023-04-03T09:34:53;11.10;1.00
42141;DHT22;27809;51.864;5.646;2023-04-03T09:37:42;12.30;1.00
42141;DHT22;27809;51.864;5.646;2023-04-03T09:40:28;12.30;1.00
42141;DHT22;27809;51.864;5.646;2023-04-03T09:43:00;12.40;1.00
42141;DHT22;27809;51.864;5.646;2023-04-03T09:45:29;13.20;1.00
42141;DHT22;27809;51.864;5.646;2023-04-03T09:51:00;11.70;1.00
42141;DHT22;27809;51.864;5.646;2023-04-03T09:53:39;13.60;1.00
42141;DHT22;27809;51.864;5.646;2023-04-03T09:58:50;11.90;1.00
42141;DHT22;27809;51.864;5.646;2023-04-03T10:01:23;12.60;1.00
42141;DHT22;27809;51.864;5.646;2023-04-03T10:06:38;14.70;1.00
42141;DHT22;27809;51.864;5.646;2023-04-03T10:09:26;16.90;1.00
42141;DHT22;27809;51.864;5.646;2023-04-03T10:12:05;15.10;1.00
42141;DHT22;27809;51.864;5.646;2023-04-03T10:14:36;14.70;1.00
42141;DHT22;27809;51.864;5.646;2023-04-03T10:19:41;21.50;1.00
42141;DHT22;27809;51.864;5.646;2023-04-03T10:25:31;17.80;1.00
42141;DHT22;27809;51.864;5.646;2023-04-03T10:28:01;15.20;1.00
42141;DHT22;27809;51.864;5.646;2023-04-03T10:30:56;14.50;1.00
42141;DHT22;27809;51.864;5.646;2023-04-03T10:34:18;14.40;1.00
42141;DHT22;27809;51.864;5.646;2023-04-03T10:45:27;14.80;1.00
42141;DHT22;27809;51.864;5.646;2023-04-03T10:53:44;16.80;1.00
42141;DHT22;27809;51.864;5.646;2023-04-03T10:58:43;14.60;1.00
42141;DHT22;27809;51.864;5.646;2023-04-03T11:01:13;15.90;1.00
42141;DHT22;27809;51.864;5.646;2023-04-03T11:03:43;15.20;1.00
42141;DHT22;27809;51.864;5.646;2023-04-03T11:06:13;16.30;1.00
42141;DHT22;27809;51.864;5.646;2023-04-03T11:11:26;15.00;1.00
42141;DHT22;27809;51.864;5.646;2023-04-03T11:16:47;15.30;1.00
42141;DHT22;27809;51.864;5.646;2023-04-03T11:19:42;15.50;1.00
42141;DHT22;27809;51.864;5.646;2023-04-03T11:25:04;18.50;1.00
42141;DHT22;27809;51.864;5.646;2023-04-03T11:27:37;20.50;1.00
42141;DHT22;27809;51.864;5.646;2023-04-03T11:30:07;20.40;1.00
42141;DHT22;27809;51.864;5.646;2023-04-03T11:32:45;17.40;1.00
42141;DHT22;27809;51.864;5.646;2023-04-03T11:35:15;13.90;1.00
42141;DHT22;27809;51.864;5.646;2023-04-03T11:37:46;12.30;1.00
42141;DHT22;27809;51.864;5.646;2023-04-03T11:42:42;12.60;1.00
42141;DHT22;27809;51.864;5.646;2023-04-03T11:48:00;14.00;1.00
42141;DHT22;27809;51.864;5.646;2023-04-03T12:01:05;20.20;1.00
42141;DHT22;27809;51.864;5.646;2023-04-03T12:18:59;17.00;1.00
42141;DHT22;27809;51.864;5.646;2023-04-03T12:29:59;17.70;1.00
42141;DHT22;27809;51.864;5.646;2023-04-03T12:32:36;16.40;1.00
42141;DHT22;27809;51.864;5.646;2023-04-03T12:45:22;15.50;1.00
42141;DHT22;27809;51.864;5.646;2023-04-03T12:47:53;14.50;1.00
42141;DHT22;27809;51.864;5.646;2023-04-03T12:50:27;15.50;1.00
42141;DHT22;27809;51.864;5.646;2023-04-03T12:53:01;14.40;1.00
42141;DHT22;27809;51.864;5.646;2023-04-03T12:55:29;14.70;1.00
42141;DHT22;27809;51.864;5.646;2023-04-03T12:57:55;15.80;1.00
42141;DHT22;27809;51.864;5.646;2023-04-03T13:00:28;15.90;1.00
42141;DHT22;27809;51.864;5.646;2023-04-03T13:02:54;15.50;1.00
42141;DHT22;27809;51.864;5.646;2023-04-03T13:05:21;15.60;1.00
42141;DHT22;27809;51.864;5.646;2023-04-03T13:08:01;14.50;1.00
42141;DHT22;27809;51.864;5.646;2023-04-03T13:10:28;15.80;1.00
42141;DHT22;27809;51.864;5.646;2023-04-03T13:13:06;14.20;1.00
42141;DHT22;27809;51.864;5.646;2023-04-03T13:15:46;15.30;1.00
42141;DHT22;27809;51.864;5.646;2023-04-03T13:18:28;17.10;1.00
42141;DHT22;27809;51.864;5.646;2023-04-03T13:21:05;17.00;1.00
42141;DHT22;27809;51.864;5.646;2023-04-03T13:23:32;15.80;1.00
42141;DHT22;27809;51.864;5.646;2023-04-03T13:26:00;15.50;1.00
42141;DHT22;27809;51.864;5.646;2023-04-03T13:28:30;15.90;1.00
42141;DHT22;27809;51.864;5.646;2023-04-03T13:33:39;15.70;1.00
42141;DHT22;27809;51.864;5.646;2023-04-03T13:36:23;17.20;1.00
42141;DHT22;27809;51.864;5.646;2023-04-03T13:39:06;15.80;1.00
42141;DHT22;27809;51.864;5.646;2023-04-03T13:41:34;17.00;1.00
42141;DHT22;27809;51.864;5.646;2023-04-03T13:46:53;15.70;1.00
42141;DHT22;27809;51.864;5.646;2023-04-03T13:49:35;15.50;1.00
42141;DHT22;27809;51.864;5.646;2023-04-03T13:52:20;15.50;1.00
42141;DHT22;27809;51.864;5.646;2023-04-03T13:54:55;16.00;1.00
42141;DHT22;27809;51.864;5.646;2023-04-03T13:57:21;17.00;1.00
42141;DHT22;27809;51.864;5.646;2023-04-03T13:59:47;16.80;1.00
42141;DHT22;27809;51.864;5.646;2023-04-03T14:07:10;17.20;1.00
42141;DHT22;27809;51.864;5.646;2023-04-03T14:09:36;18.30;1.00
42141;DHT22;27809;51.864;5.646;2023-04-03T14:12:06;17.10;1.00
42141;DHT22;27809;51.864;5.646;2023-04-03T14:14:35;17.80;1.00
42141;DHT22;27809;51.864;5.646;2023-04-03T14:17:03;17.50;1.00
42141;DHT22;27809;51.864;5.646;2023-04-03T14:19:36;17.70;1.00
42141;DHT22;27809;51.864;5.646;2023-04-03T14:22:17;17.20;1.00
42141;DHT22;27809;51.864;5.646;2023-04-03T14:24:43;16.50;1.00
42141;DHT22;27809;51.864;5.646;2023-04-03T14:27:21;14.90;1.00
42141;DHT22;27809;51.864;5.646;2023-04-03T14:29:49;14.60;1.00
42141;DHT22;27809;51.864;5.646;2023-04-03T14:32:16;14.50;1.00
42141;DHT22;27809;51.864;5.646;2023-04-03T14:34:43;14.40;1.00
42141;DHT22;27809;51.864;5.646;2023-04-03T14:37:15;14.10;1.00
42141;DHT22;27809;51.864;5.646;2023-04-03T14:39:41;14.30;1.00
42141;DHT22;27809;51.864;5.646;2023-04-03T14:42:13;14.40;1.00
42141;DHT22;27809;51.864;5.646;2023-04-03T14:44:39;14.20;1.00
42141;DHT22;27809;51.864;5.646;2023-04-03T14:47:12;14.30;1.00
42141;DHT22;27809;51.864;5.646;2023-04-03T14:49:39;12.90;1.00
42141;DHT22;27809;51.864;5.646;2023-04-03T14:52:06;13.00;1.00
42141;DHT22;27809;51.864;5.646;2023-04-03T14:54:32;13.40;1.00
42141;DHT22;27809;51.864;5.646;2023-04-03T14:56:59;13.60;1.00
42141;DHT22;27809;51.864;5.646;2023-04-03T14:59:26;13.10;1.00
42141;DHT22;27809;51.864;5.646;2023-04-03T15:01:52;13.70;1.00
42141;DHT22;27809;51.864;5.646;2023-04-03T15:04:19;14.00;1.00
42141;DHT22;27809;51.864;5.646;2023-04-03T15:06:48;13.00;1.00
42141;DHT22;27809;51.864;5.646;2023-04-03T15:09:23;13.70;1.00
42141;DHT22;27809;51.864;5.646;2023-04-03T15:11:51;14.00;1.00
42141;DHT22;27809;51.864;5.646;2023-04-03T15:14:17;14.30;1.00
42141;DHT22;27809;51.864;5.646;2023-04-03T15:16:43;13.70;1.00
42141;DHT22;27809;51.864;5.646;2023-04-03T15:19:10;13.90;1.00
42141;DHT22;27809;51.864;5.646;2023-04-03T15:21:36;13.10;1.00
42141;DHT22;27809;51.864;5.646;2023-04-03T15:24:02;13.20;1.00
42141;DHT22;27809;51.864;5.646;2023-04-03T15:26:28;13.20;1.00
42141;DHT22;27809;51.864;5.646;2023-04-03T15:28:54;13.40;1.00
42141;DHT22;27809;51.864;5.646;2023-04-03T15:31:19;12.70;1.00
42141;DHT22;27809;51.864;5.646;2023-04-03T15:33:45;12.80;1.00
42141;DHT22;27809;51.864;5.646;2023-04-03T15:36:10;12.00;1.00
42141;DHT22;27809;51.864;5.646;2023-04-03T15:38:36;12.90;1.00
42141;DHT22;27809;51.864;5.646;2023-04-03T15:41:04;12.90;1.00
42141;DHT22;27809;51.864;5.646;2023-04-03T15:43:29;11.50;1.00
42141;DHT22;27809;51.864;5.646;2023-04-03T15:45:58;12.00;1.00
42141;DHT22;27809;51.864;5.646;2023-04-03T15:48:26;12.30;1.00
42141;DHT22;27809;51.864;5.646;2023-04-03T15:50:51;12.30;1.00
42141;DHT22;27809;51.864;5.646;2023-04-03T15:53:17;12.30;1.00
42141;DHT22;27809;51.864;5.646;2023-04-03T15:55:43;13.20;1.00
42141;DHT22;27809;51.864;5.646;2023-04-03T15:58:08;12.50;1.00
42141;DHT22;27809;51.864;5.646;2023-04-03T16:00:35;12.50;1.00
42141;DHT22;27809;51.864;5.646;2023-04-03T16:03:07;12.20;1.00
42141;DHT22;27809;51.864;5.646;2023-04-03T16:05:35;11.90;1.00
42141;DHT22;27809;51.864;5.646;2023-04-03T16:08:01;11.80;1.00
42141;DHT22;27809;51.864;5.646;2023-04-03T16:10:27;11.50;1.00
42141;DHT22;27809;51.864;5.646;2023-04-03T16:12:53;11.60;1.00
42141;DHT22;27809;51.864;5.646;2023-04-03T16:15:18;11.00;1.00
42141;DHT22;27809;51.864;5.646;2023-04-03T16:17:44;10.90;1.00
42141;DHT22;27809;51.864;5.646;2023-04-03T16:20:11;10.80;1.00
42141;DHT22;27809;51.864;5.646;2023-04-03T16:22:38;10.60;1.00
42141;DHT22;27809;51.864;5.646;2023-04-03T16:25:05;10.60;1.00
42141;DHT22;27809;51.864;5.646;2023-04-03T16:27:31;10.40;1.00
42141;DHT22;27809;51.864;5.646;2023-04-03T16:29:57;10.60;1.00
42141;DHT22;27809;51.864;5.646;2023-04-03T16:32:23;10.10;1.00
42141;DHT22;27809;51.864;5.646;2023-04-03T16:34:49;10.00;1.00
42141;DHT22;27809;51.864;5.646;2023-04-03T16:37:16;10.20;1.00
42141;DHT22;27809;51.864;5.646;2023-04-03T16:39:41;10.00;1.00
42141;DHT22;27809;51.864;5.646;2023-04-03T16:42:07;9.90;1.00
42141;DHT22;27809;51.864;5.646;2023-04-03T16:44:34;9.80;1.00
42141;DHT22;27809;51.864;5.646;2023-04-03T16:46:59;9.80;1.00
42141;DHT22;27809;51.864;5.646;2023-04-03T16:49:25;9.80;1.00
42141;DHT22;27809;51.864;5.646;2023-04-03T16:51:53;9.50;1.00
42141;DHT22;27809;51.864;5.646;2023-04-03T16:54:18;9.30;1.00
42141;DHT22;27809;51.864;5.646;2023-04-03T16:56:44;10.60;1.00
42141;DHT22;27809;51.864;5.646;2023-04-03T16:59:10;9.70;1.00
42141;DHT22;27809;51.864;5.646;2023-04-03T17:01:35;9.60;1.00
42141;DHT22;27809;51.864;5.646;2023-04-03T17:04:01;9.50;1.00
42141;DHT22;27809;51.864;5.646;2023-04-03T17:06:26;9.60;1.00
42141;DHT22;27809;51.864;5.646;2023-04-03T17:08:53;9.50;1.00
42141;DHT22;27809;51.864;5.646;2023-04-03T17:11:18;9.40;1.00
42141;DHT22;27809;51.864;5.646;2023-04-03T17:13:44;9.10;1.00
42141;DHT22;27809;51.864;5.646;2023-04-03T17:16:13;9.10;1.00
42141;DHT22;27809;51.864;5.646;2023-04-03T17:18:39;8.70;1.00
42141;DHT22;27809;51.864;5.646;2023-04-03T17:21:06;8.80;1.00
42141;DHT22;27809;51.864;5.646;2023-04-03T17:23:32;8.70;1.00
42141;DHT22;27809;51.864;5.646;2023-04-03T17:26:00;8.50;1.00
42141;DHT22;27809;51.864;5.646;2023-04-03T17:28:25;8.30;1.00
42141;DHT22;27809;51.864;5.646;2023-04-03T17:31:00;8.50;1.00
42141;DHT22;27809;51.864;5.646;2023-04-03T17:33:27;8.30;1.00
42141;DHT22;27809;51.864;5.646;2023-04-03T17:36:00;8.40;1.00
42141;DHT22;27809;51.864;5.646;2023-04-03T17:38:27;9.90;1.00
42141;DHT22;27809;51.864;5.646;2023-04-03T17:40:59;8.90;1.00
42141;DHT22;27809;51.864;5.646;2023-04-03T17:43:26;8.10;1.00
42141;DHT22;27809;51.864;5.646;2023-04-03T17:45:51;7.80;1.00
42141;DHT22;27809;51.864;5.646;2023-04-03T17:48:18;7.80;1.00